Time;durP1;ratioP1;P1;durP2;ratioP2;P2;SDS_P1;SDS_P2;PMS_P1;PMS_P2;Temp;Humidity;BMP_temperature;BMP_pressure;BME280_temperature;BME280_humidity;BME280_pressure;Samples;Min_cycle;Max_cycle;Signal;HPM_P1;HPM_P2
2023/05/24 00:01:10;;;;;;;7.78;3.97;;;16.50;99.90;;;;;;4986646;28;20023;-78
2023/05/24 00:03:38;;;;;;;5.43;3.80;;;16.50;99.90;;;;;;4971769;28;20063;-77
2023/05/24 00:06:05;;;;;;;4.35;3.90;;;16.50;99.90;;;;;;4971792;28;20019;-77
2023/05/24 00:08:32;;;;;;;4.38;2.97;;;16.50;99.90;;;;;;4971732;28;20027;-78
2023/05/24 00:10:58;;;;;;;8.13;3.85;;;16.50;99.90;;;;;;4971442;28;20022;-77
2023/05/24 00:13:24;;;;;;;7.93;3.30;;;16.50;99.90;;;;;;4971532;28;20041;-77
2023/05/24 00:15:49;;;;;;;4.47;3.50;;;16.40;99.90;;;;;;4971669;28;20022;-77
2023/05/24 00:18:16;;;;;;;7.30;3.20;;;16.50;99.90;;;;;;4971590;28;20041;-77
2023/05/24 00:20:43;;;;;;;13.38;4.00;;;16.50;99.90;;;;;;4971534;28;20638;-77
2023/05/24 00:23:08;;;;;;;5.72;3.53;;;16.50;99.90;;;;;;4971277;28;20022;-77
2023/05/24 00:25:34;;;;;;;4.10;2.95;;;16.50;99.90;;;;;;4971258;28;20033;-77
2023/05/24 00:28:00;;;;;;;8.27;3.65;;;16.50;99.90;;;;;;4971443;28;20030;-77
2023/05/24 00:30:26;;;;;;;6.03;3.50;;;16.50;99.90;;;;;;4971452;28;20206;-77
2023/05/24 00:32:52;;;;;;;6.00;4.15;;;16.50;99.90;;;;;;4971362;28;20031;-77
2023/05/24 00:35:17;;;;;;;3.95;2.60;;;16.50;99.90;;;;;;4971550;28;20035;-76
2023/05/24 00:37:44;;;;;;;4.45;2.50;;;16.40;99.90;;;;;;4986238;28;20031;-77
2023/05/24 00:40:12;;;;;;;9.35;2.40;;;16.40;99.90;;;;;;4970997;28;20026;-77
2023/05/24 00:42:38;;;;;;;5.22;2.85;;;16.40;99.90;;;;;;4971064;28;20023;-77
2023/05/24 00:45:08;;;;;;;3.95;2.10;;;16.30;99.90;;;;;;4971067;28;20037;-75
2023/05/24 00:47:34;;;;;;;4.10;2.35;;;16.30;99.90;;;;;;4969809;28;20027;-76
2023/05/24 00:49:59;;;;;;;6.55;3.03;;;16.30;99.90;;;;;;4970879;28;20439;-77
2023/05/24 00:52:25;;;;;;;8.02;2.92;;;16.30;99.90;;;;;;4971012;28;20077;-76
2023/05/24 00:54:51;;;;;;;4.57;3.03;;;16.30;99.90;;;;;;4970816;28;20417;-77
2023/05/24 00:57:17;;;;;;;9.88;2.95;;;16.30;99.90;;;;;;4970982;28;20073;-77
2023/05/24 00:59:44;;;;;;;3.50;2.95;;;16.30;99.90;;;;;;4970342;28;20047;-77
2023/05/24 01:02:10;;;;;;;10.75;3.20;;;16.30;99.90;;;;;;4970354;28;20055;-76
2023/05/24 01:04:36;;;;;;;5.10;2.83;;;16.30;99.90;;;;;;4970987;28;20222;-76
2023/05/24 01:07:08;;;;;;;6.00;2.90;;;16.20;99.90;;;;;;4970802;28;20031;-77
2023/05/24 01:09:42;;;;;;;5.10;2.50;;;16.20;99.90;;;;;;4970763;28;20038;-76
2023/05/24 01:12:13;;;;;;;4.63;2.95;;;16.20;99.90;;;;;;4970542;28;20038;-76
2023/05/24 01:14:58;;;;;;;6.95;3.22;;;16.20;99.90;;;;;;4970666;28;20019;-77
2023/05/24 01:17:36;;;;;;;8.05;2.60;;;16.10;99.90;;;;;;4970628;28;20042;-77
2023/05/24 01:20:09;;;;;;;4.18;2.40;;;16.20;99.90;;;;;;4970788;28;20414;-78
2023/05/24 01:22:50;;;;;;;4.28;2.47;;;16.10;99.90;;;;;;4970800;28;20026;-76
2023/05/24 01:25:45;;;;;;;5.18;2.45;;;16.20;99.90;;;;;;4985308;28;20031;-77
2023/05/24 01:28:11;;;;;;;3.28;2.30;;;16.20;99.90;;;;;;4970631;28;20038;-76
2023/05/24 01:30:41;;;;;;;4.32;3.13;;;16.10;99.90;;;;;;4970516;28;20046;-76
2023/05/24 01:33:07;;;;;;;3.55;2.30;;;16.10;99.90;;;;;;4970377;28;20031;-76
2023/05/24 01:35:39;;;;;;;6.38;2.90;;;16.10;99.90;;;;;;4985397;28;20034;-77
2023/05/24 01:38:06;;;;;;;8.05;2.72;;;16.10;99.90;;;;;;4970439;28;20030;-77
2023/05/24 01:40:32;;;;;;;3.97;2.70;;;16.20;99.90;;;;;;4970471;28;20796;-75
2023/05/24 01:43:04;;;;;;;5.90;2.85;;;16.10;99.90;;;;;;4970430;28;20037;-76
2023/05/24 01:45:36;;;;;;;5.57;2.30;;;16.10;99.90;;;;;;4985602;28;20031;-77
2023/05/24 01:48:30;;;;;;;5.85;3.10;;;16.20;99.90;;;;;;4970172;28;20507;-76
2023/05/24 01:50:59;;;;;;;6.10;2.38;;;16.20;99.90;;;;;;4969876;28;20106;-78
2023/05/24 01:53:32;;;;;;;3.20;2.67;;;16.10;99.90;;;;;;4970049;28;20034;-77
2023/05/24 01:56:01;;;;;;;5.18;2.72;;;16.10;99.90;;;;;;4970369;28;20082;-78
2023/05/24 01:58:29;;;;;;;4.50;3.28;;;16.10;99.90;;;;;;4970447;28;20190;-77
2023/05/24 02:00:56;;;;;;;4.53;2.75;;;16.00;99.90;;;;;;4970236;28;20027;-77
2023/05/24 02:03:21;;;;;;;6.20;2.90;;;16.00;99.90;;;;;;4986984;28;20422;-77
2023/05/24 02:05:48;;;;;;;5.63;2.45;;;16.00;99.90;;;;;;4989727;28;20037;-77
2023/05/24 02:08:13;;;;;;;10.20;2.80;;;15.90;99.90;;;;;;4989761;28;20037;-77
2023/05/24 02:10:39;;;;;;;5.18;2.53;;;15.90;99.90;;;;;;4989727;28;20026;-77
2023/05/24 02:13:06;;;;;;;7.65;3.53;;;15.90;99.90;;;;;;4992357;28;20030;-77
2023/05/24 02:15:32;;;;;;;7.57;2.50;;;15.90;99.90;;;;;;4993112;28;20479;-76
2023/05/24 02:18:00;;;;;;;4.38;2.28;;;15.80;99.90;;;;;;4993293;28;20037;-78
2023/05/24 02:20:29;;;;;;;6.93;2.65;;;15.80;99.90;;;;;;4975695;28;20038;-77
2023/05/24 02:22:58;;;;;;;10.93;2.83;;;15.80;99.90;;;;;;4993050;28;20145;-77
2023/05/24 02:25:24;;;;;;;6.40;2.40;;;15.70;99.90;;;;;;4993143;28;20080;-77
2023/05/24 02:27:50;;;;;;;8.45;3.10;;;15.70;99.90;;;;;;4993126;28;20482;-77
2023/05/24 02:30:16;;;;;;;5.40;2.45;;;15.70;99.90;;;;;;4993227;28;20035;-77
2023/05/24 02:32:42;;;;;;;5.03;2.78;;;15.60;99.90;;;;;;4991936;28;20080;-78
2023/05/24 02:35:08;;;;;;;6.03;3.05;;;15.60;99.90;;;;;;4992523;28;20383;-78
2023/05/24 02:37:33;;;;;;;7.97;2.28;;;15.60;99.90;;;;;;4992790;28;20026;-77
2023/05/24 02:39:59;;;;;;;;;;;15.60;99.90;;;;;;4992464;28;20064;-78
2023/05/24 02:42:24;;;;;;;2.92;2.10;;;15.60;99.90;;;;;;4992416;28;19960;-78
2023/05/24 02:44:51;;;;;;;5.78;2.67;;;15.60;99.90;;;;;;4992585;28;20035;-78
2023/05/24 02:47:18;;;;;;;6.95;3.03;;;15.60;99.90;;;;;;4993112;28;20537;-77
2023/05/24 02:49:46;;;;;;;9.35;3.20;;;15.60;99.90;;;;;;4992704;28;20030;-78
2023/05/24 02:52:12;;;;;;;7.00;3.30;;;15.60;99.90;;;;;;4992693;28;20030;-79
2023/05/24 02:54:38;;;;;;;3.97;2.65;;;15.50;99.90;;;;;;4992504;28;20034;-78
2023/05/24 02:57:05;;;;;;;4.20;3.20;;;15.60;99.90;;;;;;4991096;28;20084;-77
2023/05/24 02:59:32;;;;;;;10.18;3.38;;;15.60;99.90;;;;;;4992391;28;20065;-78
2023/05/24 03:01:58;;;;;;;7.97;3.35;;;15.60;99.90;;;;;;4992276;28;20565;-78
2023/05/24 03:04:24;;;;;;;7.18;3.50;;;15.60;99.90;;;;;;4974922;28;20419;-78
2023/05/24 03:06:49;;;;;;;8.30;3.03;;;15.60;99.90;;;;;;4992180;28;20033;-78
2023/05/24 03:09:15;;;;;;;13.23;3.75;;;15.60;99.90;;;;;;4992269;28;20114;-78
2023/05/24 03:11:41;;;;;;;6.93;2.95;;;15.60;99.90;;;;;;4991315;28;20023;-77
2023/05/24 03:14:09;;;;;;;5.38;3.25;;;15.60;99.90;;;;;;4992125;28;20088;-77
2023/05/24 03:16:35;;;;;;;4.82;3.63;;;15.70;99.90;;;;;;4992022;28;20484;-77
2023/05/24 03:19:02;;;;;;;16.60;4.63;;;15.70;99.90;;;;;;4974712;28;20133;-77
2023/05/24 03:21:27;;;;;;;7.57;4.07;;;15.60;99.90;;;;;;4991974;28;20022;-78
2023/05/24 03:23:53;;;;;;;7.72;3.95;;;15.60;99.90;;;;;;4991640;28;20446;-78
2023/05/24 03:26:19;;;;;;;10.07;3.45;;;15.60;99.90;;;;;;4992021;28;20033;-78
2023/05/24 03:28:46;;;;;;;4.22;2.70;;;15.60;99.90;;;;;;4991741;28;20030;-78
2023/05/24 03:31:12;;;;;;;7.32;3.20;;;15.60;99.90;;;;;;4991918;28;20014;-78
2023/05/24 03:33:38;;;;;;;3.78;2.55;;;15.60;99.90;;;;;;4992013;28;20027;-78
2023/05/24 03:36:05;;;;;;;7.47;2.42;;;15.60;99.90;;;;;;4991786;28;20417;-77
2023/05/24 03:38:32;;;;;;;9.23;2.65;;;15.60;99.90;;;;;;4991870;28;20046;-77
2023/05/24 03:40:58;;;;;;;6.15;3.00;;;15.60;99.90;;;;;;4991749;28;20069;-78
2023/05/24 03:43:24;;;;;;;5.28;2.83;;;15.60;99.90;;;;;;4991836;28;20029;-78
2023/05/24 03:45:50;;;;;;;9.70;2.67;;;15.60;99.90;;;;;;4974561;28;20034;-79
2023/05/24 03:48:16;;;;;;;6.15;2.75;;;15.60;99.90;;;;;;4992154;28;20045;-78
2023/05/24 03:50:41;;;;;;;5.25;2.67;;;15.60;99.90;;;;;;4991564;28;20027;-78
2023/05/24 03:53:07;;;;;;;4.80;2.20;;;15.60;99.90;;;;;;4991341;28;20142;-78
2023/05/24 03:55:33;;;;;;;8.07;2.28;;;15.60;99.90;;;;;;4991444;28;20513;-78
2023/05/24 03:57:58;;;;;;;4.85;1.58;;;15.70;99.90;;;;;;4991285;28;20122;-77
2023/05/24 04:00:24;;;;;;;14.55;2.78;;;15.80;99.90;;;;;;4991058;28;20442;-78
2023/05/24 04:02:50;;;;;;;5.95;2.50;;;15.90;99.90;;;;;;4960402;28;20054;-78
2023/05/24 04:05:16;;;;;;;4.30;1.95;;;16.00;99.90;;;;;;4971855;28;20504;-78
2023/05/24 04:07:44;;;;;;;4.03;2.35;;;16.20;99.90;;;;;;4971775;28;20026;-78
2023/05/24 04:10:09;;;;;;;11.48;2.95;;;16.40;99.90;;;;;;4971778;28;20026;-78
2023/05/24 04:12:35;;;;;;;10.32;1.77;;;16.50;99.90;;;;;;4970541;28;20391;-78
2023/05/24 04:15:01;;;;;;;2.38;1.30;;;16.70;99.90;;;;;;4971373;28;20041;-78
2023/05/24 04:17:33;;;;;;;2.35;1.33;;;16.90;99.90;;;;;;4970207;28;20411;-78
2023/05/24 04:19:59;;;;;;;4.53;1.83;;;16.90;99.90;;;;;;4970187;28;20384;-78
2023/05/24 04:22:25;;;;;;;3.28;1.50;;;17.00;99.90;;;;;;4971556;28;20406;-77
2023/05/24 04:24:51;;;;;;;2.65;1.40;;;17.20;99.90;;;;;;4971508;28;20046;-77
2023/05/24 04:27:16;;;;;;;4.38;2.13;;;17.50;99.90;;;;;;4971290;28;20406;-78
2023/05/24 04:29:48;;;;;;;4.28;1.75;;;17.50;99.90;;;;;;4971524;28;20030;-78
2023/05/24 04:32:14;;;;;;;5.38;2.15;;;17.60;99.90;;;;;;4971296;28;20054;-78
2023/05/24 04:34:41;;;;;;;3.75;1.30;;;17.50;99.90;;;;;;4970916;28;20031;-78
2023/05/24 04:37:07;;;;;;;10.23;3.35;;;17.40;99.90;;;;;;4970590;28;20035;-78
2023/05/24 04:39:33;;;;;;;3.55;1.40;;;17.30;99.90;;;;;;4971103;28;20047;-78
2023/05/24 04:41:59;;;;;;;5.30;1.63;;;17.20;99.90;;;;;;4970929;28;20498;-78
2023/05/24 04:44:26;;;;;;;6.22;1.73;;;17.20;99.90;;;;;;4971059;28;20063;-78
2023/05/24 04:46:52;;;;;;;6.78;1.65;;;17.20;99.90;;;;;;4970956;28;20033;-76
2023/05/24 04:49:18;;;;;;;4.20;1.48;;;17.20;99.90;;;;;;4971048;28;20435;-79
2023/05/24 04:51:44;;;;;;;7.60;1.90;;;17.20;99.90;;;;;;4970867;28;20114;-78
2023/05/24 04:54:10;;;;;;;4.63;1.80;;;17.30;99.90;;;;;;4953706;28;20030;-78
2023/05/24 04:56:37;;;;;;;3.13;1.70;;;17.40;99.90;;;;;;4970823;28;20038;-78
2023/05/24 04:59:07;;;;;;;2.78;1.58;;;17.40;99.90;;;;;;4970797;28;20035;-78
2023/05/24 05:01:33;;;;;;;4.13;1.80;;;17.50;99.90;;;;;;4970659;28;20105;-78
2023/05/24 05:03:59;;;;;;;6.45;1.77;;;17.70;99.90;;;;;;4970909;28;20035;-78
2023/05/24 05:06:25;;;;;;;7.32;1.95;;;17.90;99.90;;;;;;4971116;28;20029;-78
2023/05/24 05:08:51;;;;;;;6.43;1.52;;;18.00;99.90;;;;;;4970824;28;20560;-78
2023/05/24 05:11:17;;;;;;;7.55;2.75;;;18.20;99.90;;;;;;4970544;28;20027;-78
2023/05/24 05:13:44;;;;;;;6.18;1.80;;;18.40;99.90;;;;;;4970813;28;20035;-78
2023/05/24 05:16:10;;;;;;;2.20;1.45;;;18.40;99.90;;;;;;4970713;28;20030;-77
2023/05/24 05:18:36;;;;;;;10.77;2.22;;;18.40;99.90;;;;;;4970644;28;20039;-78
2023/05/24 05:21:02;;;;;;;3.80;1.92;;;18.50;99.90;;;;;;4953061;28;20035;-77
2023/05/24 05:23:28;;;;;;;4.72;1.88;;;18.60;99.90;;;;;;4970633;28;20473;-78
2023/05/24 05:25:54;;;;;;;4.60;1.92;;;18.50;99.90;;;;;;4970632;28;20106;-77
2023/05/24 05:28:20;;;;;;;21.90;7.13;;;18.60;99.90;;;;;;4970597;28;20110;-78
2023/05/24 05:30:45;;;;;;;14.73;10.02;;;18.70;99.90;;;;;;4970215;28;20026;-78
2023/05/24 05:33:11;;;;;;;18.13;13.38;;;18.70;99.90;;;;;;4970583;28;20038;-78
2023/05/24 05:35:37;;;;;;;12.20;7.85;;;18.70;99.90;;;;;;4970566;28;20503;-78
2023/05/24 05:38:02;;;;;;;10.13;7.15;;;18.80;99.90;;;;;;4970459;28;20043;-78
2023/05/24 05:40:28;;;;;;;11.55;6.30;;;18.70;99.90;;;;;;4970448;28;20089;-78
2023/05/24 05:42:54;;;;;;;10.60;5.15;;;18.80;99.90;;;;;;4970422;28;20022;-77
2023/05/24 05:45:20;;;;;;;8.45;5.85;;;18.70;99.90;;;;;;4970519;28;20525;-78
2023/05/24 05:47:45;;;;;;;14.30;5.70;;;18.80;99.90;;;;;;4972898;28;20023;-78
2023/05/24 05:50:11;;;;;;;10.45;5.15;;;19.00;99.90;;;;;;4974327;28;20059;-77
2023/05/24 05:52:37;;;;;;;12.15;5.68;;;19.60;99.90;;;;;;4974124;28;20027;-79
2023/05/24 05:55:03;;;;;;;5.15;3.72;;;20.80;99.90;;;;;;4972984;28;20042;-78
2023/05/24 05:57:28;;;;;;;4.72;3.30;;;22.20;99.90;;;;;;4974094;28;20030;-79
2023/05/24 05:59:54;;;;;;;7.18;2.45;;;23.10;99.90;;;;;;4973909;28;20083;-79
2023/05/24 06:02:22;;;;;;;10.30;3.30;;;24.20;99.90;;;;;;4973750;28;20050;-79
2023/05/24 06:04:49;;;;;;;9.13;3.67;;;24.60;99.90;;;;;;4973821;28;20502;-79
2023/05/24 06:07:14;;;;;;;4.53;2.50;;;25.00;99.90;;;;;;4973779;28;20031;-78
2023/05/24 06:09:40;;;;;;;9.65;3.03;;;25.60;99.90;;;;;;4973936;28;20034;-77
2023/05/24 06:12:06;;;;;;;7.60;2.08;;;26.50;99.90;;;;;;4973808;28;20042;-77
2023/05/24 06:14:33;;;;;;;9.20;2.63;;;27.20;97.70;;;;;;4973797;28;20027;-77
2023/05/24 06:16:58;;;;;;;13.00;2.40;;;27.50;95.70;;;;;;4973801;28;20061;-77
2023/05/24 06:19:25;;;;;;;4.65;2.28;;;27.60;94.80;;;;;;4973471;28;20078;-77
2023/05/24 06:21:51;;;;;;;4.43;2.60;;;28.00;92.50;;;;;;4956090;28;20026;-77
2023/05/24 06:24:21;;;;;;;6.20;3.25;;;28.30;87.20;;;;;;4973605;28;20053;-76
2023/05/24 06:26:47;;;;;;;7.70;2.67;;;28.50;85.70;;;;;;4973225;28;20030;-77
2023/05/24 06:29:13;;;;;;;3.50;2.42;;;28.60;84.50;;;;;;4973403;28;20093;-78
2023/05/24 06:31:39;;;;;;;4.18;2.00;;;28.60;76.50;;;;;;4973366;28;20031;-77
2023/05/24 06:34:05;;;;;;;6.82;2.75;;;28.90;84.20;;;;;;4973384;28;20058;-77
2023/05/24 06:36:40;;;;;;;6.15;2.50;;;29.50;76.10;;;;;;4973352;28;20475;-78
2023/05/24 06:39:05;;;;;;;7.18;2.60;;;29.70;73.80;;;;;;4973120;28;20038;-76
2023/05/24 06:41:31;;;;;;;10.85;3.05;;;29.60;76.20;;;;;;4973226;28;20034;-76
2023/05/24 06:43:57;;;;;;;6.50;2.67;;;29.60;78.60;;;;;;4973295;28;20118;-76
2023/05/24 06:46:22;;;;;;;4.53;2.38;;;29.50;82.00;;;;;;4973169;28;20403;-78
2023/05/24 06:48:48;;;;;;;10.10;3.60;;;29.80;80.40;;;;;;4973003;28;20061;-77
2023/05/24 06:51:14;;;;;;;9.80;3.40;;;30.00;77.50;;;;;;4973228;28;20060;-75
2023/05/24 06:53:40;;;;;;;5.22;2.50;;;30.50;76.10;;;;;;4973314;28;20073;-76
2023/05/24 06:56:08;;;;;;;9.40;3.20;;;31.00;71.20;;;;;;4973206;28;20061;-77
2023/05/24 06:58:34;;;;;;;5.03;2.45;;;31.30;66.40;;;;;;4972147;28;20494;-76
2023/05/24 07:01:00;;;;;;;4.63;2.20;;;31.20;63.20;;;;;;4972543;28;20034;-77
2023/05/24 07:03:25;;;;;;;5.28;2.13;;;30.70;65.60;;;;;;4972334;28;20368;-77
2023/05/24 07:05:51;;;;;;;2.88;2.25;;;30.40;71.40;;;;;;4972653;28;20113;-77
2023/05/24 07:08:17;;;;;;;5.63;2.63;;;29.90;74.30;;;;;;4972728;28;20402;-76
2023/05/24 07:10:43;;;;;;;4.90;2.40;;;29.20;80.50;;;;;;4972657;28;20038;-76
2023/05/24 07:13:12;;;;;;;7.97;2.83;;;28.30;90.60;;;;;;4972467;28;20027;-77
2023/05/24 07:15:40;;;;;;;6.38;2.83;;;27.30;93.00;;;;;;4971407;28;20046;-77
2023/05/24 07:18:06;;;;;;;8.52;2.08;;;26.50;95.40;;;;;;4972411;28;20154;-76
2023/05/24 07:20:32;;;;;;;4.95;2.92;;;26.00;96.00;;;;;;4972354;28;20554;-76
2023/05/24 07:22:57;;;;;;;4.32;3.00;;;25.60;96.80;;;;;;4972498;28;20031;-77
2023/05/24 07:25:23;;;;;;;7.07;2.90;;;25.20;97.30;;;;;;4972426;28;20451;-78
2023/05/24 07:27:49;;;;;;;8.52;3.13;;;24.70;98.20;;;;;;4972502;28;20034;-76
2023/05/24 07:30:15;;;;;;;4.93;2.75;;;24.80;98.40;;;;;;4972428;28;20031;-77
2023/05/24 07:32:41;;;;;;;4.78;2.80;;;25.20;96.20;;;;;;4972112;28;20030;-77
2023/05/24 07:35:11;;;;;;;7.65;2.72;;;25.40;93.20;;;;;;4972079;28;20038;-77
2023/05/24 07:37:37;;;;;;;4.25;2.90;;;25.80;92.60;;;;;;4955218;28;20146;-76
2023/05/24 07:40:04;;;;;;;5.57;2.97;;;26.10;91.80;;;;;;4972210;28;20122;-78
2023/05/24 07:42:30;;;;;;;4.32;2.13;;;26.60;83.00;;;;;;4972013;28;20318;-77
2023/05/24 07:44:56;;;;;;;4.88;2.17;;;27.20;79.70;;;;;;4972079;28;20037;-76
2023/05/24 07:47:21;;;;;;;2.95;2.30;;;27.60;76.90;;;;;;4972109;28;20035;-77
2023/05/24 07:49:47;;;;;;;7.63;2.38;;;28.30;73.60;;;;;;4971954;28;20514;-77
2023/05/24 07:52:13;;;;;;;5.00;2.42;;;28.30;70.40;;;;;;4971948;28;20122;-77
2023/05/24 07:54:39;;;;;;;3.40;1.90;;;28.00;70.50;;;;;;4971874;28;20106;-77
2023/05/24 07:57:06;;;;;;;4.43;2.40;;;28.00;70.70;;;;;;4971855;28;20410;-78
2023/05/24 07:59:32;;;;;;;5.18;2.33;;;27.60;72.70;;;;;;4971753;28;20030;-77
2023/05/24 08:02:02;;;;;;;6.93;2.40;;;27.20;70.00;;;;;;4971498;28;20046;-77
2023/05/24 08:04:28;;;;;;;5.85;2.85;;;26.60;73.00;;;;;;4971689;28;20030;-77
2023/05/24 08:06:55;;;;;;;8.15;2.30;;;26.50;76.20;;;;;;4971601;28;20019;-77
2023/05/24 08:09:21;;;;;;;6.97;2.30;;;26.50;75.60;;;;;;4971770;28;20142;-77
2023/05/24 08:11:47;;;;;;;6.07;1.83;;;26.60;76.00;;;;;;4971445;28;20022;-77
2023/05/24 08:14:12;;;;;;;7.60;1.95;;;26.70;74.40;;;;;;4954063;28;20022;-76
2023/05/24 08:16:38;;;;;;;3.85;2.05;;;26.90;72.50;;;;;;4971389;28;20106;-76
2023/05/24 08:19:05;;;;;;;8.00;2.55;;;27.00;74.90;;;;;;4971282;28;20534;-77
2023/05/24 08:21:32;;;;;;;4.90;1.95;;;27.00;75.10;;;;;;4971445;28;20472;-77
2023/05/24 08:23:59;;;;;;;13.30;1.98;;;27.00;75.40;;;;;;4971276;28;20065;-77
2023/05/24 08:26:25;;;;;;;5.35;2.20;;;26.80;73.60;;;;;;4971371;28;20034;-77
2023/05/24 08:28:51;;;;;;;5.20;2.30;;;26.80;75.70;;;;;;4971237;28;20023;-78
2023/05/24 08:31:17;;;;;;;4.30;1.80;;;26.80;73.60;;;;;;4969732;28;20439;-77
2023/05/24 08:33:43;;;;;;;4.45;2.40;;;27.20;73.30;;;;;;4971314;28;20027;-78
2023/05/24 08:36:08;;;;;;;7.30;2.30;;;27.60;75.60;;;;;;4971050;28;20052;-77
2023/05/24 08:38:34;;;;;;;8.80;2.53;;;28.10;75.40;;;;;;4970978;28;20039;-77
2023/05/24 08:41:05;;;;;;;9.73;1.98;;;28.50;69.50;;;;;;4970995;28;20035;-77
2023/05/24 08:43:32;;;;;;;5.75;2.63;;;28.10;66.90;;;;;;4971108;28;20483;-76
2023/05/24 08:46:00;;;;;;;8.27;2.53;;;27.80;69.20;;;;;;4971091;28;20049;-77
2023/05/24 08:48:27;;;;;;;5.40;2.25;;;27.70;70.00;;;;;;4970957;28;20480;-76
2023/05/24 08:50:53;;;;;;;6.72;2.50;;;27.80;71.10;;;;;;4970889;28;20523;-78
2023/05/24 08:53:21;;;;;;;7.18;2.42;;;28.10;69.30;;;;;;4969674;28;20155;-77
2023/05/24 08:55:51;;;;;;;8.40;2.63;;;28.00;68.40;;;;;;4971216;28;20031;-78
2023/05/24 08:58:18;;;;;;;7.88;2.63;;;28.00;67.80;;;;;;4970810;28;20027;-78
2023/05/24 09:00:44;;;;;;;5.28;2.53;;;27.40;67.40;;;;;;4970694;28;20031;-77
2023/05/24 09:03:11;;;;;;;10.80;3.05;;;26.90;69.10;;;;;;4953174;28;20537;-77
2023/05/24 09:05:38;;;;;;;5.47;2.42;;;26.60;72.00;;;;;;4970646;28;20407;-77
2023/05/24 09:08:05;;;;;;;8.15;2.08;;;26.50;73.10;;;;;;4970682;28;20023;-77
2023/05/24 09:10:32;;;;;;;4.72;2.30;;;26.40;73.00;;;;;;4971151;28;20554;-77
2023/05/24 09:13:02;;;;;;;5.25;2.40;;;26.30;73.70;;;;;;4970531;28;20114;-77
2023/05/24 09:15:28;;;;;;;5.97;2.72;;;26.50;75.50;;;;;;4970584;28;20027;-78
2023/05/24 09:17:54;;;;;;;4.30;2.58;;;26.40;76.30;;;;;;4970558;28;20031;-78
2023/05/24 09:20:20;;;;;;;5.70;2.70;;;26.10;76.90;;;;;;4969279;28;20037;-78
2023/05/24 09:22:51;;;;;;;10.48;2.92;;;25.80;79.10;;;;;;4969879;28;20101;-76
2023/05/24 09:25:19;;;;;;;4.63;2.60;;;25.40;82.60;;;;;;4970464;28;20074;-76
2023/05/24 09:27:50;;;;;;;5.38;2.60;;;24.90;83.00;;;;;;4970611;28;20019;-77
2023/05/24 09:30:15;;;;;;;5.43;3.17;;;24.30;90.50;;;;;;4971911;28;20026;-77
2023/05/24 09:32:57;;;;;;;4.97;2.80;;;24.00;94.10;;;;;;4970511;28;20035;-78
2023/05/24 09:35:25;;;;;;;7.47;3.22;;;23.60;96.60;;;;;;4970427;28;20031;-78
2023/05/24 09:37:54;;;;;;;8.90;3.70;;;23.30;99.90;;;;;;4970399;28;20787;-77
2023/05/24 09:40:20;;;;;;;8.75;3.88;;;23.00;99.90;;;;;;4970423;28;20046;-78
2023/05/24 09:42:46;;;;;;;10.45;3.78;;;22.50;99.90;;;;;;4970358;28;20455;-77
2023/05/24 09:45:12;;;;;;;14.60;7.65;;;22.20;99.90;;;;;;4970405;28;20106;-77
2023/05/24 09:47:41;;;;;;;232.32;103.22;;;21.90;99.90;;;;;;4970508;28;20023;-79
2023/05/24 09:50:16;;;;;;;536.58;289.98;;;21.70;99.90;;;;;;4970262;28;20491;-78
2023/05/24 09:52:42;;;;;;;946.70;578.00;;;21.60;99.90;;;;;;4970342;28;20404;-77
2023/05/24 09:55:15;;;;;;;326.95;169.68;;;21.60;99.90;;;;;;4968652;28;20502;-78
2023/05/24 09:57:43;;;;;;;40.50;22.20;;;21.60;99.90;;;;;;4970288;28;20031;-77
2023/05/24 10:00:16;;;;;;;38.88;20.55;;;21.60;99.90;;;;;;4970027;28;20411;-78
2023/05/24 10:02:43;;;;;;;262.98;159.27;;;21.80;99.90;;;;;;4970322;28;20047;-78
2023/05/24 10:05:12;;;;;;;75.75;39.17;;;22.20;99.90;;;;;;4968857;28;20506;-76
2023/05/24 10:07:41;;;;;;;34.17;20.67;;;22.50;99.90;;;;;;4969306;28;20082;-76
2023/05/24 10:10:08;;;;;;;25.05;17.80;;;22.90;99.90;;;;;;4970445;28;20480;-75
2023/05/24 10:12:34;;;;;;;26.55;16.05;;;23.30;99.90;;;;;;4968802;28;20034;-76
2023/05/24 10:15:01;;;;;;;33.33;22.30;;;23.50;99.90;;;;;;4969075;28;20042;-76
2023/05/24 10:17:27;;;;;;;10.43;6.45;;;23.80;99.90;;;;;;4969996;28;20039;-77
2023/05/24 10:19:53;;;;;;;52.92;37.03;;;23.80;99.90;;;;;;4970060;28;20038;-76
2023/05/24 10:22:23;;;;;;;7.90;3.53;;;24.00;99.90;;;;;;4969950;28;20531;-77
2023/05/24 10:24:55;;;;;;;8.50;5.53;;;24.10;99.90;;;;;;4969855;28;20260;-78
2023/05/24 10:27:23;;;;;;;7.55;4.05;;;24.10;99.90;;;;;;4969913;28;20050;-75
2023/05/24 10:30:08;;;;;;;10.93;3.15;;;24.20;99.90;;;;;;4969768;28;20023;-76
2023/05/24 10:32:37;;;;;;;8.80;2.38;;;24.30;97.70;;;;;;4970019;28;20038;-77
2023/05/24 10:35:06;;;;;;;7.15;2.88;;;24.30;94.40;;;;;;4972656;28;20493;-76
2023/05/24 10:37:32;;;;;;;4.22;2.72;;;24.40;98.30;;;;;;4973386;28;20035;-77
2023/05/24 10:39:59;;;;;;;5.50;2.58;;;24.50;99.20;;;;;;4973329;28;20051;-77
2023/05/24 10:42:25;;;;;;;4.15;2.72;;;24.70;97.40;;;;;;4973181;28;20031;-76
2023/05/24 10:44:51;;;;;;;4.00;2.60;;;24.80;95.80;;;;;;4973161;28;20031;-75
2023/05/24 10:47:19;;;;;;;5.38;2.72;;;24.90;92.90;;;;;;4973447;28;20030;-76
2023/05/24 10:49:56;;;;;;;4.22;2.50;;;25.20;95.10;;;;;;4972118;28;20078;-76
2023/05/24 10:52:33;;;;;;;8.95;2.75;;;25.50;93.90;;;;;;4973121;28;20026;-77
2023/05/24 10:55:08;;;;;;;4.70;2.70;;;25.70;92.10;;;;;;4973006;28;20424;-77
2023/05/24 10:57:34;;;;;;;5.45;2.45;;;26.00;88.50;;;;;;4973025;28;20030;-76
2023/05/24 11:00:27;;;;;;;6.97;2.65;;;26.00;88.30;;;;;;4972938;28;20109;-76
2023/05/24 11:03:01;;;;;;;6.28;2.90;;;26.00;84.40;;;;;;4972720;28;20058;-77
2023/05/24 11:05:50;;;;;;;3.90;2.35;;;26.00;88.60;;;;;;4992365;28;20092;-76
2023/05/24 11:08:24;;;;;;;3.13;2.58;;;25.70;82.60;;;;;;4992389;28;20403;-75
2023/05/24 11:11:00;;;;;;;5.45;3.15;;;25.70;84.30;;;;;;4992092;28;20022;-77
2023/05/24 11:13:26;;;;;;;9.10;2.55;;;25.50;82.50;;;;;;4992334;28;20038;-77
2023/05/24 11:15:52;;;;;;;6.18;2.38;;;25.60;83.70;;;;;;4992190;28;20034;-76
2023/05/24 11:18:22;;;;;;;2.97;2.03;;;25.50;84.40;;;;;;4992171;28;20030;-77
2023/05/24 11:20:49;;;;;;;4.25;2.42;;;25.40;86.30;;;;;;4992035;28;20058;-77
2023/05/24 11:23:15;;;;;;;4.82;2.13;;;25.40;87.60;;;;;;4992169;28;20014;-77
2023/05/24 11:25:43;;;;;;;7.72;2.78;;;25.20;79.40;;;;;;4992219;28;20558;-77
2023/05/24 11:28:10;;;;;;;4.38;2.35;;;25.00;79.90;;;;;;4991970;28;20010;-77
2023/05/24 11:30:44;;;;;;;3.55;2.17;;;25.00;80.80;;;;;;4991847;28;20030;-78
2023/05/24 11:33:22;;;;;;;4.00;2.22;;;25.00;84.60;;;;;;4991828;28;20018;-76
2023/05/24 11:35:53;;;;;;;4.55;2.72;;;24.90;80.30;;;;;;4971185;28;20031;-77
2023/05/24 11:38:20;;;;;;;5.05;2.65;;;24.80;84.50;;;;;;4990045;28;20038;-77
2023/05/24 11:40:48;;;;;;;4.93;2.80;;;24.70;90.00;;;;;;4991521;28;20049;-76
2023/05/24 11:43:18;;;;;;;7.00;2.67;;;24.60;90.60;;;;;;4991810;28;20098;-77
2023/05/24 11:45:52;;;;;;;6.55;3.53;;;24.50;90.00;;;;;;4991293;28;20101;-77
2023/05/24 11:48:19;;;;;;;5.57;2.55;;;24.50;91.10;;;;;;4991755;28;20027;-77
2023/05/24 11:50:47;;;;;;;5.53;2.70;;;24.40;91.30;;;;;;4991398;28;20576;-77
2023/05/24 11:53:15;;;;;;;7.60;3.05;;;24.50;93.60;;;;;;4991309;28;20015;-75
2023/05/24 11:55:41;;;;;;;5.47;3.28;;;24.50;96.80;;;;;;4991463;28;20041;-77
2023/05/24 11:58:20;;;;;;;8.32;3.00;;;24.50;98.40;;;;;;4991162;28;20108;-77
2023/05/24 12:00:47;;;;;;;5.55;2.92;;;24.60;99.30;;;;;;4990861;28;20034;-75
2023/05/24 12:03:12;;;;;;;3.13;2.38;;;24.60;99.60;;;;;;4990998;28;20050;-75
2023/05/24 12:05:38;;;;;;;4.95;2.65;;;24.80;98.90;;;;;;4991171;28;20054;-77
2023/05/24 12:08:05;;;;;;;6.70;3.17;;;25.00;98.00;;;;;;4991056;28;20105;-77
2023/05/24 12:10:33;;;;;;;4.90;2.90;;;25.40;98.40;;;;;;4990919;28;20215;-77
2023/05/24 12:12:59;;;;;;;5.05;2.63;;;25.70;98.90;;;;;;4990932;28;20106;-77
2023/05/24 12:15:25;;;;;;;7.13;2.60;;;25.80;96.60;;;;;;4990915;28;20109;-76
2023/05/24 12:17:52;;;;;;;5.90;3.08;;;26.10;94.30;;;;;;4990916;28;20179;-77
2023/05/24 12:20:21;;;;;;;11.93;3.15;;;26.20;90.40;;;;;;4989302;28;20506;-77
2023/05/24 12:22:51;;;;;;;4.28;2.60;;;26.30;90.20;;;;;;4990527;28;20053;-77
2023/05/24 12:25:21;;;;;;;6.45;3.45;;;26.50;91.90;;;;;;4990755;28;20030;-77
2023/05/24 12:27:55;;;;;;;4.88;2.60;;;26.80;90.50;;;;;;4990697;28;20112;-76
2023/05/24 12:30:23;;;;;;;8.35;2.58;;;26.90;85.10;;;;;;4990748;28;20027;-77
2023/05/24 12:32:52;;;;;;;6.97;3.08;;;27.10;80.90;;;;;;4989349;28;20766;-77
2023/05/24 12:35:19;;;;;;;6.28;2.92;;;27.00;76.60;;;;;;4990759;28;20029;-78
2023/05/24 12:37:44;;;;;;;8.05;2.90;;;26.90;78.60;;;;;;4990758;28;20034;-77
2023/05/24 12:40:19;;;;;;;12.02;3.40;;;26.90;77.10;;;;;;4990575;28;20049;-76
2023/05/24 12:43:05;;;;;;;7.07;2.78;;;27.00;79.10;;;;;;4990398;28;20022;-76
2023/05/24 12:45:31;;;;;;;;;;;27.10;77.30;;;;;;4990690;28;20053;-76
2023/05/24 12:47:58;;;;;;;3.80;2.53;;;27.30;75.70;;;;;;4990363;28;19984;-76